Time;durP1;ratioP1;P1;durP2;ratioP2;P2;SDS_P1;SDS_P2;PMS_P1;PMS_P2;Temp;Humidity;BMP_temperature;BMP_pressure;BME280_temperature;BME280_humidity;BME280_pressure;Samples;Min_cycle;Max_cycle;Signal;HPM_P1;HPM_P2
2022/07/21 00:02:07;;;;;;;9.63;6.90;;;;;;;21.51;78.40;94301.34;5047959;28;20208;-55
2022/07/21 00:04:52;;;;;;;8.05;7.25;;;;;;;21.63;78.50;94301.78;5048312;28;20367;-55
2022/07/21 00:07:36;;;;;;;7.85;7.10;;;;;;;21.55;78.70;94307.91;5053592;28;20206;-55
2022/07/21 00:10:24;;;;;;;9.50;6.97;;;;;;;21.46;78.84;94306.19;5049435;28;20284;-55
2022/07/21 00:13:08;;;;;;;7.90;7.13;;;;;;;21.53;78.95;94309.97;5045978;28;20592;-55
2022/07/21 00:15:54;;;;;;;8.97;7.90;;;;;;;21.61;78.49;94311.00;5050317;28;20245;-55
2022/07/21 00:18:37;;;;;;;8.37;7.47;;;;;;;21.96;75.36;94298.72;5046210;28;20623;-55
2022/07/21 00:21:21;;;;;;;10.20;8.30;;;;;;;22.00;74.91;94307.41;5051835;28;20567;-55
2022/07/21 00:24:05;;;;;;;14.05;8.82;;;;;;;21.92;76.23;94309.22;5050655;28;20634;-55
2022/07/21 00:26:50;;;;;;;9.43;8.43;;;;;;;21.89;76.67;94311.28;5051738;28;20216;-55
2022/07/21 00:29:34;;;;;;;14.20;8.30;;;;;;;21.89;76.64;94316.25;5048795;28;20279;-55
2022/07/21 00:32:18;;;;;;;11.00;7.53;;;;;;;21.82;76.66;94323.88;5050057;28;20229;-55
2022/07/21 00:35:04;;;;;;;9.65;8.32;;;;;;;21.80;77.67;94318.09;5047885;28;20277;-55
2022/07/21 00:37:48;;;;;;;7.90;7.17;;;;;;;22.07;75.03;94320.50;5047248;28;20287;-55
2022/07/21 00:40:32;;;;;;;9.65;8.68;;;;;;;22.18;75.41;94330.88;5041762;28;20225;-55
2022/07/21 00:43:17;;;;;;;10.67;8.93;;;;;;;22.24;75.12;94335.31;5051461;28;20205;-55
2022/07/21 00:46:01;;;;;;;12.32;8.65;;;;;;;22.17;75.57;94340.81;5043904;28;20229;-55
2022/07/21 00:48:45;;;;;;;9.65;8.75;;;;;;;22.18;76.04;94347.28;5049621;28;20260;-55
2022/07/21 00:51:29;;;;;;;9.83;8.47;;;;;;;22.12;75.84;94344.22;5050368;28;20233;-55
2022/07/21 00:54:18;;;;;;;9.77;8.80;;;;;;;22.02;76.28;94335.31;5050115;28;20259;-55
2022/07/21 00:57:03;;;;;;;13.88;9.02;;;;;;;21.96;75.82;94327.25;5051622;28;20255;-55
2022/07/21 00:59:48;;;;;;;7.87;7.07;;;;;;;21.98;76.09;94321.59;5040713;28;20588;-55
2022/07/21 01:02:36;;;;;;;10.55;9.27;;;;;;;22.32;74.36;94321.34;5044388;28;20258;-55
2022/07/21 01:05:20;;;;;;;10.88;9.10;;;;;;;22.19;76.09;94326.63;5051136;28;20579;-55
2022/07/21 01:08:04;;;;;;;10.63;9.18;;;;;;;22.15;76.27;94320.78;5045666;28;20718;-55
2022/07/21 01:10:48;;;;;;;11.52;8.75;;;;;;;22.07;77.39;94326.22;5048095;28;20240;-55
2022/07/21 01:13:32;;;;;;;14.57;9.05;;;;;;;22.08;76.90;94324.81;5041727;28;20330;-55
2022/07/21 01:16:16;;;;;;;9.73;8.40;;;;;;;22.08;76.44;94321.97;5049235;28;20201;-55
2022/07/21 01:19:00;;;;;;;9.45;8.65;;;;;;;22.07;76.91;94331.94;5049392;28;20224;-55
2022/07/21 01:21:47;;;;;;;9.95;9.00;;;;;;;22.08;76.64;94327.69;5045238;28;20564;-55
2022/07/21 01:24:31;;;;;;;11.98;9.45;;;;;;;22.14;76.15;94330.75;5043993;28;20205;-55
2022/07/21 01:27:15;;;;;;;9.75;8.75;;;;;;;22.11;77.16;94332.06;5053561;28;20574;-55
2022/07/21 01:29:59;;;;;;;10.75;9.70;;;;;;;21.87;78.59;94342.59;5054227;28;20255;-55
2022/07/21 01:32:44;;;;;;;10.30;9.27;;;;;;;21.90;79.16;94341.28;5046057;28;20217;-55
2022/07/21 01:35:28;;;;;;;9.60;8.60;;;;;;;22.11;77.05;94346.31;5047676;28;20565;-55
2022/07/21 01:41:30;;;;;;;11.60;8.98;;;;;;;22.22;76.76;94343.84;5049672;28;20285;-55
2022/07/21 01:44:14;;;;;;;10.98;9.45;;;;;;;22.03;77.68;94348.91;5044273;28;20194;-55
2022/07/21 01:46:58;;;;;;;10.93;8.70;;;;;;;22.07;77.92;94343.34;5040983;28;20209;-55
2022/07/21 01:49:42;;;;;;;10.70;9.60;;;;;;;22.11;77.35;94348.44;5049337;28;20205;-55
2022/07/21 01:52:27;;;;;;;9.77;8.60;;;;;;;22.08;78.05;94355.50;5048606;28;20271;-55
2022/07/21 01:55:11;;;;;;;11.07;9.30;;;;;;;22.09;77.78;94345.53;5050673;28;20292;-55
2022/07/21 01:57:54;;;;;;;10.45;9.45;;;;;;;21.94;79.68;94352.84;5050889;28;20263;-55
2022/07/21 02:00:38;;;;;;;9.65;8.68;;;;;;;22.03;77.75;94360.34;5048453;28;20225;-55
2022/07/21 02:03:23;;;;;;;8.77;7.90;;;;;;;22.26;75.28;94358.97;5042938;28;20309;-55
2022/07/21 02:06:08;;;;;;;9.70;8.73;;;;;;;22.46;74.05;94364.66;5049981;28;20640;-55
2022/07/21 02:08:53;;;;;;;9.23;7.93;;;;;;;22.62;72.28;94359.47;5049832;28;20218;-55
2022/07/21 02:11:38;;;;;;;10.95;8.27;;;;;;;22.64;72.11;94378.81;5044197;28;20645;-55
2022/07/21 02:14:22;;;;;;;9.18;8.25;;;;;;;22.54;73.04;94371.34;5039543;28;20205;-55
2022/07/21 02:17:06;;;;;;;11.05;8.98;;;;;;;22.70;72.65;94373.31;5049388;28;20210;-55
2022/07/21 02:19:50;;;;;;;10.90;8.30;;;;;;;22.59;72.61;94372.22;5050548;28;20229;-55
2022/07/21 02:22:34;;;;;;;10.23;8.32;;;;;;;22.60;72.35;94373.69;5047887;28;20308;-55
2022/07/21 02:25:18;;;;;;;8.77;7.90;;;;;;;22.90;69.41;94354.69;5048180;28;20587;-55
2022/07/21 02:28:03;;;;;;;10.30;8.25;;;;;;;23.05;68.88;94358.03;5046351;28;20252;-55
2022/07/21 02:30:47;;;;;;;8.90;8.00;;;;;;;22.88;70.05;94354.66;5044696;28;20205;-55
2022/07/21 02:33:32;;;;;;;8.95;8.07;;;;;;;22.46;71.78;94350.38;5048098;28;20288;-55
2022/07/21 02:36:16;;;;;;;7.93;7.18;;;;;;;22.60;70.58;94347.97;5049375;28;20682;-55
2022/07/21 02:39:00;;;;;;;11.15;8.05;;;;;;;22.62;69.64;94342.34;5042396;28;20221;-55
2022/07/21 02:41:45;;;;;;;8.73;7.93;;;;;;;22.68;69.18;94350.38;5050685;28;20280;-55
2022/07/21 02:44:30;;;;;;;9.73;8.70;;;;;;;22.63;70.16;94346.66;5044196;28;20205;-55
2022/07/21 02:47:15;;;;;;;9.83;8.70;;;;;;;22.49;69.99;94351.88;5050011;28;20290;-55
2022/07/21 02:49:59;;;;;;;10.13;8.00;;;;;;;22.47;70.75;94354.66;5053252;28;20259;-55
2022/07/21 02:52:43;;;;;;;9.93;8.93;;;;;;;22.34;71.49;94352.81;5047593;28;20638;-55
2022/07/21 02:55:27;;;;;;;9.77;7.78;;;;;;;22.34;71.34;94347.81;5047894;28;20582;-55
2022/07/21 02:58:20;;;;;;;10.23;8.32;;;;;;;22.41;70.69;94343.03;5054991;28;20205;-55
2022/07/21 03:01:05;;;;;;;9.32;8.43;;;;;;;22.46;70.91;94336.09;5048373;28;20206;-55
2022/07/21 03:03:50;;;;;;;9.82;8.90;;;;;;;22.44;71.20;94338.88;5053279;28;20233;-55
2022/07/21 03:06:34;;;;;;;10.13;8.05;;;;;;;22.43;70.90;94340.25;5047242;28;20197;-55
2022/07/21 03:09:17;;;;;;;9.18;8.27;;;;;;;22.47;70.37;94340.38;5053056;28;20208;-55
2022/07/21 03:12:02;;;;;;;9.88;8.90;;;;;;;22.67;68.89;94337.47;5053122;28;20256;-55
2022/07/21 03:14:46;;;;;;;9.95;8.77;;;;;;;22.64;69.46;94344.53;5045725;28;20217;-55
2022/07/21 03:17:29;;;;;;;8.90;7.80;;;;;;;22.87;67.87;94349.59;5052009;28;20635;-55
2022/07/21 03:20:13;;;;;;;12.75;8.43;;;;;;;22.68;68.31;94356.81;5052185;28;20237;-55
2022/07/21 03:22:58;;;;;;;10.13;8.52;;;;;;;22.76;68.27;94362.84;5051792;28;20740;-55
2022/07/21 03:25:42;;;;;;;10.30;8.20;;;;;;;22.90;67.33;94371.84;5047112;28;20197;-55
2022/07/21 03:28:26;;;;;;;10.07;9.10;;;;;;;22.91;67.83;94361.88;5049646;28;20908;-55
2022/07/21 03:31:10;;;;;;;9.85;8.40;;;;;;;22.94;67.27;94366.28;5050687;28;20707;-55
2022/07/21 03:33:53;;;;;;;13.45;9.15;;;;;;;22.72;68.49;94368.41;5049544;28;20260;-55
2022/07/21 03:36:37;;;;;;;11.20;8.95;;;;;;;22.60;69.37;94365.13;5052486;28;20228;-55
2022/07/21 03:39:21;;;;;;;11.88;9.02;;;;;;;22.58;69.71;94365.06;5045184;28;20309;-55
2022/07/21 03:42:05;;;;;;;9.63;8.65;;;;;;;22.55;69.59;94366.38;5042398;28;20198;-55
2022/07/21 03:44:49;;;;;;;14.73;13.20;;;;;;;22.44;70.40;94379.59;5049380;28;20688;-55
2022/07/21 03:47:34;;;;;;;11.10;9.80;;;;;;;22.47;70.16;94371.81;5049225;28;20205;-55
2022/07/21 03:50:18;;;;;;;11.70;8.93;;;;;;;22.65;68.53;94381.00;5063457;28;20197;-55
2022/07/21 03:53:03;;;;;;;10.38;9.23;;;;;;;22.70;69.16;94381.88;5049773;28;20201;-55
2022/07/21 03:55:47;;;;;;;10.10;9.07;;;;;;;22.82;67.86;94388.75;5051095;28;20284;-55
2022/07/21 03:58:31;;;;;;;9.63;8.57;;;;;;;22.88;67.28;94386.09;5051601;28;20213;-55
2022/07/21 04:01:15;;;;;;;10.00;9.10;;;;;;;22.77;68.62;94392.88;5051064;28;20206;-55
2022/07/21 04:03:59;;;;;;;9.20;8.30;;;;;;;22.80;68.21;94394.38;5049294;28;20225;-55
2022/07/21 04:06:43;;;;;;;11.05;9.65;;;;;;;22.61;69.50;94389.44;5052108;28;20224;-55
2022/07/21 04:09:27;;;;;;;11.05;9.75;;;;;;;22.53;70.03;94392.00;5049371;28;20247;-55
2022/07/21 04:12:11;;;;;;;12.60;9.50;;;;;;;22.60;69.28;94393.69;5043959;28;20798;-55
2022/07/21 04:14:55;;;;;;;13.05;9.27;;;;;;;22.32;71.49;94395.56;5046085;28;20220;-55
2022/07/21 04:17:40;;;;;;;10.45;9.25;;;;;;;22.46;70.43;94387.50;5046969;28;20632;-55
2022/07/21 04:20:24;;;;;;;9.35;8.45;;;;;;;22.65;69.33;94397.44;5047341;28;20253;-56
2022/07/21 04:23:08;;;;;;;11.55;9.60;;;;;;;22.67;69.12;94401.06;5044099;28;20221;-55
2022/07/21 04:25:53;;;;;;;11.52;10.40;;;;;;;22.64;69.84;94402.41;5047405;28;20566;-55
2022/07/21 04:28:37;;;;;;;16.38;9.43;;;;;;;22.72;69.59;94408.41;5050022;28;20603;-55
2022/07/21 04:31:21;;;;;;;11.55;9.38;;;;;;;22.80;68.83;94410.81;5045511;28;21130;-55
2022/07/21 04:34:05;;;;;;;10.73;9.13;;;;;;;22.91;67.73;94416.19;5049671;28;20204;-55
2022/07/21 04:36:49;;;;;;;13.02;10.52;;;;;;;22.85;68.98;94413.13;5043452;28;20197;-55
2022/07/21 04:39:33;;;;;;;11.75;9.43;;;;;;;22.82;68.66;94417.31;5065877;28;20360;-55
2022/07/21 04:42:17;;;;;;;11.90;8.93;;;;;;;22.67;69.24;94412.50;5044841;28;20711;-55
2022/07/21 04:45:01;;;;;;;10.40;9.32;;;;;;;22.81;69.01;94420.84;5043016;28;20209;-55
2022/07/21 04:47:46;;;;;;;12.02;10.52;;;;;;;23.04;68.13;94425.16;5050108;28;20213;-55
2022/07/21 04:50:32;;;;;;;12.18;10.68;;;;;;;23.11;68.04;94429.69;5039108;28;20463;-55
2022/07/21 04:53:16;;;;;;;11.25;9.65;;;;;;;23.11;67.69;94429.69;5048194;28;20666;-55
2022/07/21 04:56:00;;;;;;;11.57;9.60;;;;;;;23.08;68.28;94431.03;5051141;28;20201;-55
2022/07/21 04:58:44;;;;;;;10.02;9.05;;;;;;;23.20;68.10;94431.41;5054972;28;20264;-55
2022/07/21 05:01:28;;;;;;;9.52;8.63;;;;;;;23.19;67.85;94429.94;5045846;28;20345;-55
2022/07/21 05:04:12;;;;;;;11.25;8.90;;;;;;;23.13;67.79;94438.34;5050583;28;20280;-55
2022/07/21 05:06:57;;;;;;;11.85;9.70;;;;;;;23.25;67.20;94444.44;5051271;28;20255;-55
2022/07/21 05:09:41;;;;;;;12.38;9.55;;;;;;;23.07;69.34;94443.84;5048011;28;20209;-55
2022/07/21 05:12:25;;;;;;;10.00;9.00;;;;;;;23.23;67.71;94438.66;5046809;28;20225;-55
2022/07/21 05:15:13;;;;;;;10.98;9.98;;;;;;;23.48;65.88;94443.78;5046329;28;20210;-55
2022/07/21 05:17:58;;;;;;;10.40;9.27;;;;;;;23.42;66.80;94443.56;5039492;28;20217;-55
2022/07/21 05:20:41;;;;;;;9.75;8.85;;;;;;;23.65;65.16;94440.00;5034868;28;20775;-55
2022/07/21 05:23:25;;;;;;;13.85;10.13;;;;;;;23.50;65.81;94443.84;5041221;28;20348;-55
2022/07/21 05:26:09;;;;;;;12.70;10.80;;;;;;;23.49;66.70;94444.50;5045528;28;20209;-56
2022/07/21 05:28:53;;;;;;;11.80;10.70;;;;;;;23.78;64.99;94436.13;5048115;28;20217;-55
2022/07/21 05:31:37;;;;;;;10.57;9.63;;;;;;;23.87;64.77;94447.81;5040055;28;20253;-55
2022/07/21 05:34:21;;;;;;;9.93;8.93;;;;;;;24.00;63.92;94449.63;5046044;28;20206;-54
2022/07/21 05:37:05;;;;;;;9.88;8.77;;;;;;;24.02;64.03;94449.69;5047087;28;20196;-55
2022/07/21 05:39:49;;;;;;;10.07;8.85;;;;;;;23.99;64.34;94448.91;5045558;28;20590;-54
2022/07/21 05:42:34;;;;;;;12.82;10.38;;;;;;;23.86;65.00;94452.06;5044992;28;20631;-54
2022/07/21 05:45:18;;;;;;;9.70;8.77;;;;;;;23.92;65.13;94455.13;5044073;28;20205;-55
2022/07/21 05:48:02;;;;;;;9.82;8.85;;;;;;;24.03;64.62;94454.75;5049641;28;20279;-55
2022/07/21 05:50:46;;;;;;;10.75;9.57;;;;;;;24.08;64.60;94461.31;5049841;28;20260;-54
2022/07/21 05:53:30;;;;;;;11.52;10.43;;;;;;;24.37;63.28;94463.63;5042947;28;20718;-55
2022/07/21 05:56:14;;;;;;;13.35;10.38;;;;;;;24.48;63.65;94468.22;5048823;28;20682;-55
2022/07/21 05:58:58;;;;;;;10.95;9.90;;;;;;;24.53;62.44;94472.66;5049775;28;20335;-55
2022/07/21 06:01:42;;;;;;;12.75;10.50;;;;;;;24.74;62.64;94478.97;5039676;28;20257;-55
2022/07/21 06:04:26;;;;;;;12.02;10.63;;;;;;;24.68;61.75;94473.06;5048590;28;20217;-55
2022/07/21 06:07:10;;;;;;;11.63;10.57;;;;;;;24.77;61.88;94480.47;5046355;28;20244;-55
2022/07/21 06:09:54;;;;;;;13.60;11.02;;;;;;;24.53;62.53;94481.25;5048055;28;20197;-54
2022/07/21 06:12:38;;;;;;;13.02;11.40;;;;;;;24.71;62.77;94478.16;5042211;28;20205;-55
2022/07/21 06:15:22;;;;;;;13.35;11.90;;;;;;;24.88;61.82;94485.06;5043856;28;20228;-55
2022/07/21 06:18:06;;;;;;;13.00;11.68;;;;;;;24.96;61.95;94488.16;5053994;28;20249;-54
2022/07/21 06:20:50;;;;;;;13.30;11.90;;;;;;;24.83;62.62;94489.94;5062175;28;20229;-55
2022/07/21 06:23:34;;;;;;;12.00;10.77;;;;;;;24.76;62.06;94490.47;5050545;28;20208;-55
2022/07/21 06:26:18;;;;;;;15.55;11.75;;;;;;;24.71;62.99;94489.63;5057437;28;20204;-55
2022/07/21 06:29:02;;;;;;;14.07;11.50;;;;;;;24.51;63.28;94484.06;5054114;28;20208;-55
2022/07/21 06:31:46;;;;;;;12.38;10.88;;;;;;;24.55;63.34;94495.66;5039541;28;20640;-54
2022/07/21 06:34:30;;;;;;;12.98;11.63;;;;;;;24.27;64.60;94489.09;5052315;28;20210;-54
2022/07/21 06:37:14;;;;;;;12.88;11.63;;;;;;;24.31;64.23;94494.97;5053069;28;20205;-57
2022/07/21 06:39:59;;;;;;;13.90;12.35;;;;;;;24.23;64.96;94494.72;5053265;28;20221;-57
2022/07/21 06:42:43;;;;;;;14.35;12.85;;;;;;;24.39;64.59;94500.91;5053570;28;20821;-57
2022/07/21 06:45:27;;;;;;;14.45;13.00;;;;;;;23.68;67.42;94495.91;5051657;28;20225;-57
2022/07/21 06:48:12;;;;;;;14.35;12.90;;;;;;;23.30;68.44;94508.94;5049670;28;20698;-57
2022/07/21 06:50:56;;;;;;;13.57;12.18;;;;;;;23.47;68.57;94504.50;5053345;28;20196;-55
2022/07/21 06:53:42;;;;;;;14.90;13.10;;;;;;;23.74;67.11;94509.66;5051004;28;20197;-55
2022/07/21 06:56:26;;;;;;;18.00;14.75;;;;;;;23.48;68.20;94512.44;5046107;28;20213;-55
2022/07/21 06:59:09;;;;;;;13.93;12.52;;;;;;;23.22;69.52;94511.53;5052223;28;20294;-54
2022/07/21 07:01:54;;;;;;;17.48;14.77;;;;;;;23.30;69.48;94509.69;5043139;28;20285;-54
2022/07/21 07:04:37;;;;;;;16.70;15.07;;;;;;;22.69;72.40;94515.41;5047400;28;20217;-54
2022/07/21 07:07:22;;;;;;;16.80;14.93;;;;;;;22.99;71.20;94524.34;5053396;28;20229;-55
2022/07/21 07:10:06;;;;;;;16.13;14.15;;;;;;;23.07;71.38;94521.03;5047728;28;20217;-54
2022/07/21 07:12:50;;;;;;;19.92;16.40;;;;;;;22.89;72.14;94513.31;5048075;28;20425;-54
2022/07/21 07:15:34;;;;;;;17.42;15.82;;;;;;;23.13;71.04;94507.69;5043758;28;20201;-55
2022/07/21 07:18:20;;;;;;;21.30;16.15;;;;;;;22.98;71.80;94520.75;5048217;28;20201;-55
2022/07/21 07:21:04;;;;;;;16.75;15.02;;;;;;;23.22;70.57;94511.53;5041939;28;20657;-54
2022/07/21 07:23:48;;;;;;;19.08;15.30;;;;;;;23.33;70.37;94516.22;5046007;28;20260;-55
2022/07/21 07:26:32;;;;;;;17.70;15.90;;;;;;;23.51;69.65;94513.97;5040248;28;20257;-55
2022/07/21 07:29:16;;;;;;;17.63;16.02;;;;;;;23.42;70.26;94514.31;5045609;28;20206;-55
2022/07/21 07:32:00;;;;;;;18.42;14.48;;;;;;;23.65;69.08;94511.53;5047198;28;20217;-55
2022/07/21 07:34:44;;;;;;;18.27;16.40;;;;;;;23.55;69.62;94510.50;5044366;28;20275;-54
2022/07/21 07:37:29;;;;;;;15.63;14.02;;;;;;;24.37;66.55;94518.06;5047879;28;20282;-54
2022/07/21 07:40:20;;;;;;;16.05;14.35;;;;;;;24.78;64.32;94522.06;5042980;28;20648;-55
2022/07/21 07:43:04;;;;;;;16.58;13.70;;;;;;;24.92;63.02;94519.63;5052366;28;20626;-54
2022/07/21 07:45:48;;;;;;;17.17;12.93;;;;;;;25.14;62.38;94528.78;5051572;28;20205;-55
2022/07/21 07:48:34;;;;;;;14.13;12.38;;;;;;;25.09;61.47;94532.22;5046138;28;20251;-55
2022/07/21 07:51:18;;;;;;;14.48;12.32;;;;;;;24.65;62.79;94529.59;5045434;28;20205;-55
2022/07/21 07:54:03;;;;;;;13.60;12.30;;;;;;;24.78;62.14;94525.66;5050291;28;20205;-55
2022/07/21 07:56:47;;;;;;;16.30;13.98;;;;;;;24.89;61.77;94529.56;5047567;28;20199;-55
2022/07/21 07:59:31;;;;;;;13.38;11.98;;;;;;;24.69;62.51;94534.72;5048654;28;20245;-54
2022/07/21 08:02:15;;;;;;;13.50;12.13;;;;;;;24.44;62.89;94530.44;5051398;28;20561;-55
2022/07/21 08:04:59;;;;;;;14.18;11.20;;;;;;;24.52;62.35;94539.25;5049502;28;20256;-54
2022/07/21 08:07:43;;;;;;;13.90;11.07;;;;;;;24.53;62.50;94532.84;5051118;28;20248;-54
2022/07/21 08:10:27;;;;;;;13.85;12.45;;;;;;;24.43;62.64;94534.69;5045030;28;20197;-55
2022/07/21 08:13:14;;;;;;;13.70;12.25;;;;;;;24.35;62.92;94540.16;5049587;28;20682;-55
2022/07/21 08:15:58;;;;;;;12.70;11.38;;;;;;;24.16;63.44;94541.72;5050442;28;20217;-54
2022/07/21 08:18:43;;;;;;;13.13;11.73;;;;;;;24.09;63.81;94545.81;5052213;28;20695;-55
2022/07/21 08:21:30;;;;;;;12.90;11.40;;;;;;;24.07;64.20;94548.63;5044505;28;20252;-55
2022/07/21 08:24:14;;;;;;;14.32;11.85;;;;;;;23.76;65.22;94541.94;5044981;28;20232;-55
2022/07/21 08:26:58;;;;;;;16.65;13.10;;;;;;;23.78;64.86;94547.72;5056604;28;20221;-55
2022/07/21 08:29:42;;;;;;;16.08;13.32;;;;;;;23.23;67.18;94547.31;5056974;28;20571;-57
2022/07/21 08:32:26;;;;;;;13.65;12.18;;;;;;;23.52;66.11;94541.16;5038930;28;20237;-55
2022/07/21 08:35:11;;;;;;;13.43;12.02;;;;;;;23.58;66.32;94547.06;5045053;28;20239;-55
2022/07/21 08:37:59;;;;;;;12.55;11.35;;;;;;;21.97;69.88;94557.00;5052167;28;20750;-55
2022/07/21 08:40:45;;;;;;;11.18;10.07;;;;;;;22.08;69.02;94558.88;5037514;28;20269;-55
2022/07/21 08:43:30;;;;;;;12.75;10.02;;;;;;;22.09;69.19;94560.34;5051252;28;20252;-55
2022/07/21 08:46:15;;;;;;;11.25;10.07;;;;;;;22.41;67.87;94568.66;5050665;28;20205;-55
2022/07/21 08:49:02;;;;;;;12.00;9.27;;;;;;;22.38;68.23;94561.41;5051511;28;20699;-55
2022/07/21 08:51:46;;;;;;;11.57;9.65;;;;;;;22.36;67.84;94550.63;5036339;28;20293;-55
2022/07/21 08:54:31;;;;;;;12.98;9.60;;;;;;;22.23;68.48;94560.13;5040259;28;20201;-55
2022/07/21 08:57:16;;;;;;;11.27;9.48;;;;;;;21.93;69.75;94562.53;5051645;28;20202;-55
2022/07/21 09:00:00;;;;;;;11.63;9.80;;;;;;;21.94;69.74;94566.84;5044691;28;20300;-55
2022/07/21 09:02:44;;;;;;;10.40;9.20;;;;;;;22.09;69.83;94563.19;5046827;28;20209;-55
2022/07/21 09:05:28;;;;;;;13.53;9.67;;;;;;;21.73;71.14;94567.44;5046857;28;20197;-55
2022/07/21 09:08:13;;;;;;;13.80;9.93;;;;;;;22.38;68.87;94562.13;5046183;28;20210;-55
2022/07/21 09:11:17;;;;;;;12.52;10.25;;;;;;;22.13;69.76;94563.34;5047205;28;20255;-55
2022/07/21 09:14:10;;;;;;;12.57;10.25;;;;;;;22.03;70.41;94568.69;5044544;28;20201;-56
2022/07/21 09:16:58;;;;;;;15.80;10.20;;;;;;;22.08;69.80;94573.16;5046103;28;20286;-55
2022/07/21 09:19:46;;;;;;;13.70;10.20;;;;;;;21.67;71.96;94578.59;5049815;28;20700;-55
2022/07/21 09:22:30;;;;;;;11.60;9.53;;;;;;;22.35;70.01;94572.00;5045507;28;20229;-55
2022/07/21 09:25:32;;;;;;;11.35;10.18;;;;;;;22.21;69.67;94573.63;5043217;28;20205;-55
2022/07/21 09:28:25;;;;;;;12.13;10.80;;;;;;;21.85;71.40;94573.63;5049799;28;20192;-55
2022/07/21 09:31:14;;;;;;;13.18;10.32;;;;;;;21.97;71.65;94579.13;5046250;28;20193;-55
2022/07/21 09:33:58;;;;;;;14.75;10.60;;;;;;;22.04;71.39;94587.25;5048317;28;20197;-55
2022/07/21 09:36:56;;;;;;;11.48;10.27;;;;;;;21.71;72.53;94581.63;5050800;28;20830;-55
2022/07/21 09:39:46;;;;;;;12.13;10.88;;;;;;;21.94;71.53;94574.69;5041978;28;20234;-55
2022/07/21 09:42:34;;;;;;;13.65;9.93;;;;;;;22.25;70.13;94585.19;5049205;28;20673;-55
2022/07/21 09:45:19;;;;;;;14.13;11.15;;;;;;;21.71;71.87;94578.78;5047803;28;20205;-55
2022/07/21 09:48:03;;;;;;;11.57;10.37;;;;;;;22.12;70.46;94581.84;5048292;28;20286;-55
2022/07/21 09:50:47;;;;;;;14.40;10.23;;;;;;;22.41;68.86;94592.22;5046823;28;20252;-55
2022/07/21 09:53:51;;;;;;;11.90;10.20;;;;;;;22.67;68.27;94583.91;5050895;28;20209;-55
2022/07/21 09:56:41;;;;;;;11.90;10.15;;;;;;;22.71;67.42;94586.94;5037810;28;20338;-55
2022/07/21 09:59:25;;;;;;;13.98;10.88;;;;;;;22.98;67.04;94582.91;5045855;28;20602;-55
2022/07/21 10:02:16;;;;;;;14.38;9.50;;;;;;;23.17;66.28;94592.84;5054079;28;20640;-55
2022/07/21 10:05:13;;;;;;;12.88;10.82;;;;;;;23.32;65.30;94591.97;5050368;28;20316;-55
2022/07/21 10:07:57;;;;;;;13.20;10.35;;;;;;;22.95;66.47;94587.84;5050887;28;20351;-55
2022/07/21 10:10:42;;;;;;;14.27;11.45;;;;;;;22.97;66.51;94579.31;5054259;28;20197;-55
2022/07/21 10:13:27;;;;;;;16.30;11.27;;;;;;;23.11;66.37;94584.78;5050685;28;20240;-55
2022/07/21 10:16:12;;;;;;;12.10;10.90;;;;;;;23.65;64.59;94583.06;5052237;28;20324;-55
2022/07/21 10:19:14;;;;;;;12.13;10.93;;;;;;;24.44;61.52;94576.97;5051231;28;20807;-55
2022/07/21 10:22:08;;;;;;;13.18;10.35;;;;;;;25.09;59.83;94573.13;5052346;28;20467;-55
2022/07/21 10:24:52;;;;;;;12.43;10.38;;;;;;;25.97;57.18;94585.44;5052137;28;20256;-55
2022/07/21 10:27:37;;;;;;;12.10;10.45;;;;;;;25.90;57.09;94588.84;5052741;28;20298;-55
2022/07/21 10:30:40;;;;;;;12.80;9.73;;;;;;;26.29;55.54;94591.25;5052328;28;20573;-55
2022/07/21 10:33:42;;;;;;;10.82;9.73;;;;;;;26.12;55.93;94595.84;5052850;28;20213;-55
2022/07/21 10:36:26;;;;;;;14.68;10.45;;;;;;;25.59;56.66;94590.22;5051681;28;20193;-55
2022/07/21 10:39:10;;;;;;;11.77;10.50;;;;;;;25.47;57.09;94589.91;5047860;28;20737;-55
2022/07/21 10:41:56;;;;;;;10.82;9.73;;;;;;;25.98;56.03;94598.41;5049854;28;20244;-55
2022/07/21 10:44:43;;;;;;;13.23;8.88;;;;;;;25.99;53.51;94599.84;5040268;28;20213;-55
2022/07/21 10:47:30;;;;;;;11.63;9.93;;;;;;;26.04;53.55;94592.81;5053463;28;20248;-55
2022/07/21 10:50:39;;;;;;;13.45;9.88;;;;;;;25.32;56.02;94588.78;5052838;28;20641;-55
2022/07/21 10:53:23;;;;;;;11.48;10.10;;;;;;;25.86;55.38;94586.59;5047220;28;20296;-55
2022/07/21 10:56:08;;;;;;;10.93;9.82;;;;;;;25.57;56.28;94576.56;5047638;28;20332;-55
2022/07/21 10:58:52;;;;;;;14.00;10.63;;;;;;;25.90;55.90;94583.84;5039210;28;20206;-55
2022/07/21 11:01:38;;;;;;;11.65;10.45;;;;;;;24.63;59.13;94583.97;5047621;28;20256;-55
2022/07/21 11:04:22;;;;;;;12.07;10.77;;;;;;;25.65;56.82;94593.25;5052811;28;20263;-55
2022/07/21 11:07:07;;;;;;;12.48;9.90;;;;;;;25.65;55.38;94588.25;5049055;28;20256;-55
2022/07/21 11:10:17;;;;;;;11.43;10.00;;;;;;;25.43;55.29;94581.91;5052039;28;20674;-55
2022/07/21 11:13:02;;;;;;;12.85;11.23;;;;;;;26.33;52.99;94579.09;5047814;28;20203;-55
2022/07/21 11:15:53;;;;;;;13.23;10.18;;;;;;;26.89;51.13;94580.34;5051963;28;20196;-55
2022/07/21 11:18:43;;;;;;;10.73;9.55;;;;;;;27.54;50.26;94581.59;5049297;28;20260;-55
2022/07/21 11:21:27;;;;;;;12.15;10.23;;;;;;;27.17;48.87;94577.28;5038146;28;20348;-55
2022/07/21 11:24:18;;;;;;;13.95;10.82;;;;;;;26.50;51.39;94580.91;5044429;28;20198;-55
2022/07/21 11:27:11;;;;;;;9.95;9.02;;;;;;;26.76;51.78;94572.13;5049948;28;20201;-55
2022/07/21 11:29:57;;;;;;;11.32;10.23;;;;;;;26.76;51.77;94578.63;5050334;28;20248;-55
2022/07/21 11:32:46;;;;;;;12.68;11.25;;;;;;;25.70;52.47;94568.97;5049613;28;20673;-55
2022/07/21 11:35:36;;;;;;;16.85;11.57;;;;;;;25.10;55.77;94568.84;5053365;28;20721;-55
2022/07/21 11:38:20;;;;;;;11.98;10.65;;;;;;;25.81;54.79;94570.69;5052792;28;20201;-55
2022/07/21 11:41:15;;;;;;;12.07;10.48;;;;;;;25.82;54.85;94566.41;5052206;28;20222;-55
2022/07/21 11:44:00;;;;;;;15.00;11.60;;;;;;;26.01;54.14;94565.44;5042070;28;20260;-55
2022/07/21 11:46:51;;;;;;;13.98;10.60;;;;;;;25.67;55.29;94567.47;5051437;28;20225;-55
2022/07/21 11:49:35;;;;;;;11.88;9.45;;;;;;;25.77;52.97;94559.09;5040990;28;20272;-55
2022/07/21 11:52:25;;;;;;;11.73;10.40;;;;;;;25.66;53.11;94557.41;5048931;28;20213;-55
2022/07/21 11:55:12;;;;;;;14.95;12.07;;;;;;;25.81;54.09;94556.31;5043584;28;20244;-55
2022/07/21 11:57:56;;;;;;;13.23;11.73;;;;;;;25.85;54.63;94556.44;5050683;28;20240;-55
2022/07/21 12:00:40;;;;;;;11.20;10.10;;;;;;;26.23;53.40;94547.25;5047071;28;20225;-55
2022/07/21 12:03:24;;;;;;;14.98;10.85;;;;;;;26.85;52.38;94545.72;5033825;28;20266;-55
2022/07/21 12:06:08;;;;;;;12.18;10.50;;;;;;;27.02;51.93;94548.94;5048829;28;20631;-55
2022/07/21 12:08:52;;;;;;;13.48;9.77;;;;;;;26.62;52.35;94546.69;5053013;28;20733;-55
2022/07/21 12:11:36;;;;;;;14.98;9.35;;;;;;;26.62;52.58;94548.81;5051037;28;20205;-55
2022/07/21 12:14:22;;;;;;;11.75;10.45;;;;;;;27.10;51.92;94546.22;5043462;28;20209;-55
2022/07/21 12:17:06;;;;;;;12.38;11.15;;;;;;;26.97;52.04;94551.72;5052052;28;20690;-55
2022/07/21 12:19:50;;;;;;;15.63;10.35;;;;;;;27.66;50.82;94546.53;5052336;28;20280;-55
2022/07/21 12:22:38;;;;;;;12.88;10.07;;;;;;;27.85;50.08;94538.91;5041002;28;20300;-54
2022/07/21 12:25:49;;;;;;;11.55;10.00;;;;;;;28.01;48.89;94544.94;5056941;28;20193;-55
2022/07/21 12:28:53;;;;;;;13.30;11.90;;;;;;;27.70;49.32;94546.63;5050591;28;20193;-55
2022/07/21 12:31:37;;;;;;;13.25;11.93;;;;;;;27.84;49.61;94540.34;5045925;28;20200;-55
2022/07/21 12:34:24;;;;;;;12.15;10.93;;;;;;;27.87;48.76;94542.56;5048812;28;20282;-55
2022/07/21 12:37:08;;;;;;;12.30;10.55;;;;;;;28.24;48.68;94543.88;5041125;28;20299;-55
2022/07/21 12:40:03;;;;;;;11.70;10.52;;;;;;;28.14;48.68;94540.84;5051244;28;20301;-55
2022/07/21 12:42:48;;;;;;;13.27;11.23;;;;;;;28.56;47.25;94532.06;5044287;28;20584;-55
2022/07/21 12:45:44;;;;;;;15.88;11.25;;;;;;;28.89;46.58;94536.09;5044978;28;20201;-55
2022/07/21 12:48:32;;;;;;;12.65;10.38;;;;;;;28.90;46.71;94534.66;5048604;28;20205;-55
2022/07/21 12:51:18;;;;;;;11.27;10.07;;;;;;;28.67;47.32;94532.91;5056811;28;20258;-55